Time;durP1;ratioP1;P1;durP2;ratioP2;P2;SDS_P1;SDS_P2;PMS_P1;PMS_P2;Temp;Humidity;BMP_temperature;BMP_pressure;BME280_temperature;BME280_humidity;BME280_pressure;Samples;Min_cycle;Max_cycle;Signal;HPM_P1;HPM_P2
2024/03/07 00:01:27;;;;;;;;;;;;;;;1.50;100.00;102130.34;6153769;23;20310;-78
2024/03/07 00:03:52;;;;;;;;;;;;;;;1.44;100.00;102130.75;6154345;23;19919;-79
2024/03/07 00:06:18;;;;;;;;;;;;;;;1.42;100.00;102130.00;6154505;23;20323;-79
2024/03/07 00:08:43;;;;;;;;;;;;;;;1.36;100.00;102126.84;6154219;23;19940;-77
2024/03/07 00:11:14;;;;;;;;;;;;;;;1.31;100.00;102128.94;6149505;23;20353;-78
2024/03/07 00:13:52;;;;;;;;;;;;;;;1.29;100.00;102130.84;6154510;23;20031;-78
2024/03/07 00:16:17;;;;;;;;;;;;;;;1.23;100.00;102131.28;6155075;23;19951;-79
2024/03/07 00:18:42;;;;;;;;;;;;;;;1.16;100.00;102132.66;6153954;23;19912;-78
2024/03/07 00:21:08;;;;;;;;;;;;;;;1.12;100.00;102134.66;6156633;23;19908;-79
2024/03/07 00:23:33;;;;;;;;;;;;;;;1.09;100.00;102142.81;6154106;23;19919;-79
2024/03/07 00:25:59;;;;;;;;;;;;;;;1.10;100.00;102133.91;6153836;23;19919;-78
2024/03/07 00:28:29;;;;;;;;;;;;;;;1.08;100.00;102129.66;6155724;23;19920;-78
2024/03/07 00:30:55;;;;;;;;;;;;;;;1.04;100.00;102134.31;6154637;23;19912;-78
2024/03/07 00:33:23;;;;;;;;;;;;;;;1.04;100.00;102132.53;6154978;23;19912;-78
2024/03/07 00:35:48;;;;;;;;;;;;;;;1.05;100.00;102134.22;6156728;23;20392;-78
2024/03/07 00:38:14;;;;;;;;;;;;;;;1.04;100.00;102129.88;6155054;23;19913;-79
2024/03/07 00:40:39;;;;;;;;;;;;;;;1.03;100.00;102136.13;6152952;23;20353;-79
2024/03/07 00:43:05;;;;;;;;;;;;;;;0.96;100.00;102123.38;6154777;23;20334;-78
2024/03/07 00:45:32;;;;;;;;;;;;;;;0.92;100.00;102127.19;6154746;23;19912;-78
2024/03/07 00:47:57;;;;;;;;;;;;;;;0.92;100.00;102128.03;6153953;23;19916;-78
2024/03/07 00:50:22;;;;;;;;;;;;;;;0.81;100.00;102127.91;6155425;23;19912;-78
2024/03/07 00:52:48;;;;;;;;;;;;;;;0.79;100.00;102127.13;6153981;23;19991;-78
2024/03/07 00:55:14;;;;;;;;;;;;;;;0.78;100.00;102139.56;6153894;23;19967;-78
2024/03/07 00:57:39;;;;;;;;;;;;;;;0.83;100.00;102128.66;6155335;23;19936;-78
2024/03/07 01:00:11;;;;;;;;;;;;;;;0.84;100.00;102140.94;6154291;23;20333;-79
2024/03/07 01:02:36;;;;;;;;;;;;;;;0.78;100.00;102128.97;6153797;23;20712;-78
2024/03/07 01:05:01;;;;;;;;;;;;;;;0.77;100.00;102126.38;6155245;23;19916;-78
2024/03/07 01:07:27;;;;;;;;;;;;;;;0.79;100.00;102137.75;6154549;23;19956;-79
2024/03/07 01:09:54;;;;;;;;;;;;;;;0.81;100.00;102133.19;6155336;23;20249;-78
2024/03/07 01:12:22;;;;;;;;;;;;;;;0.67;100.00;102137.59;6155243;23;19913;-78
2024/03/07 01:14:47;;;;;;;;;;;;;;;0.60;100.00;102137.16;6154802;23;19988;-78
2024/03/07 01:17:12;;;;;;;;;;;;;;;0.56;100.00;102138.31;6154650;23;20352;-78
2024/03/07 01:19:38;;;;;;;;;;;;;;;0.48;100.00;102134.44;6155379;23;20306;-78
2024/03/07 01:22:03;;;;;;;;;;;;;;;0.49;100.00;102125.56;6163059;23;19994;-78
2024/03/07 01:24:28;;;;;;;;;;;;;;;0.39;100.00;102135.88;6161627;23;19948;-78
2024/03/07 01:26:53;;;;;;;;;;;;;;;0.36;100.00;102130.78;6156553;23;19920;-79
2024/03/07 01:29:19;;;;;;;;;;;;;;;0.39;100.00;102130.59;6154813;23;19913;-79
2024/03/07 01:31:44;;;;;;;;;;;;;;;0.39;100.00;102126.13;6153820;23;19947;-78
2024/03/07 01:34:09;;;;;;;;;;;;;;;0.40;100.00;102121.69;6154979;23;20159;-78
2024/03/07 01:36:34;;;;;;;;;;;;;;;0.50;100.00;102127.25;6153912;23;20289;-78
2024/03/07 01:38:59;;;;;;;;;;;;;;;0.42;100.00;102122.44;6153711;23;19966;-79
2024/03/07 01:41:25;;;;;;;;;;;;;;;0.38;100.00;102127.06;6153895;23;19917;-78
2024/03/07 01:43:53;;;;;;;;;;;;;;;0.36;100.00;102120.19;6152667;23;20199;-78
2024/03/07 01:46:19;;;;;;;;;;;;;;;0.33;100.00;102118.59;6154566;23;19989;-77
2024/03/07 01:48:44;;;;;;;;;;;;;;;0.40;100.00;102121.69;6154953;23;19917;-78
2024/03/07 01:51:10;;;;;;;;;;;;;;;0.40;100.00;102111.94;6158412;23;20090;-78
2024/03/07 01:53:35;;;;;;;;;;;;;;;0.39;100.00;102123.47;6155503;23;20182;-78
2024/03/07 01:56:01;;;;;;;;;;;;;;;0.40;100.00;102111.94;6156997;23;20107;-79
2024/03/07 01:58:26;;;;;;;;;;;;;;;0.33;100.00;102110.66;6153947;23;19917;-78
2024/03/07 02:00:54;;;;;;;;;;;;;;;0.20;100.00;102115.00;6153836;23;19916;-78
2024/03/07 02:03:19;;;;;;;;;;;;;;;0.08;100.00;102111.38;6152218;23;19913;-79
2024/03/07 02:05:45;;;;;;;;;;;;;;;0.01;100.00;102105.56;6152019;23;20294;-78
2024/03/07 02:08:14;;;;;;;;;;;;;;;-0.06;100.00;102101.63;6153599;23;19913;-78
2024/03/07 02:10:39;;;;;;;;;;;;;;;-0.16;100.00;102099.53;6153386;23;19963;-78
2024/03/07 02:13:05;;;;;;;;;;;;;;;-0.24;100.00;102099.19;6158813;23;19913;-77
2024/03/07 02:15:30;;;;;;;;;;;;;;;-0.32;100.00;102104.09;6164377;23;19936;-77
2024/03/07 02:17:55;;;;;;;;;;;;;;;-0.42;100.00;102105.63;6160393;23;19951;-77
2024/03/07 02:20:20;;;;;;;;;;;;;;;-0.51;100.00;102104.38;6161150;23;19917;-79
2024/03/07 02:22:46;;;;;;;;;;;;;;;-0.54;100.00;102104.56;6156868;23;19940;-78
2024/03/07 02:25:11;;;;;;;;;;;;;;;-0.59;100.00;102102.19;6156816;23;20309;-78
2024/03/07 02:27:39;;;;;;;;;;;;;;;-0.64;100.00;102093.69;6159092;23;20226;-78
2024/03/07 02:30:08;;;;;;;;;;;;;;;-0.71;100.00;102100.31;6158288;23;19917;-78
2024/03/07 02:32:33;;;;;;;;;;;;;;;-0.77;100.00;102099.72;6159077;23;19959;-77
2024/03/07 02:34:58;;;;;;;;;;;;;;;-0.85;100.00;102091.38;6162828;23;19912;-77
2024/03/07 02:37:23;;;;;;;;;;;;;;;-0.91;100.00;102091.75;6167169;23;19921;-77
2024/03/07 02:39:49;;;;;;;;;;;;;;;-0.95;100.00;102088.44;6168110;23;19917;-77
2024/03/07 02:42:17;;;;;;;;;;;;;;;-0.93;100.00;102093.66;6168057;23;19912;-77
2024/03/07 02:44:42;;;;;;;;;;;;;;;-0.91;100.00;102094.41;6160278;23;19924;-77
2024/03/07 02:47:07;;;;;;;;;;;;;;;-0.92;100.00;102088.25;6158855;23;19999;-77
2024/03/07 02:49:34;;;;;;;;;;;;;;;-0.95;100.00;102099.00;6158744;23;19935;-77
2024/03/07 02:52:00;;;;;;;;;;;;;;;-0.95;100.00;102091.06;6156753;23;20373;-77
2024/03/07 02:54:25;;;;;;;;;;;;;;;-0.93;100.00;102083.06;6157528;23;19912;-77
2024/03/07 02:56:50;;;;;;;;;;;;;;;-0.84;100.00;102085.16;6157080;23;19928;-77
2024/03/07 02:59:16;;;;;;;;;;;;;;;-0.81;100.00;102082.34;6156220;23;20329;-77
2024/03/07 03:01:41;;;;;;;;;;;;;;;-0.89;100.00;102081.97;6154296;23;20435;-77
2024/03/07 03:04:07;;;;;;;;;;;;;;;-0.90;100.00;102082.03;6156774;23;19948;-77
2024/03/07 03:09:21;;;;;;;;;;;;;;;-0.64;100.00;102080.47;6151813;23;19925;-78
2024/03/07 03:11:59;;;;;;;;;;;;;;;-0.46;100.00;102081.97;6156410;23;19920;-77
2024/03/07 03:14:24;;;;;;;;;;;;;;;-0.37;100.00;102079.72;6154097;23;19935;-77
2024/03/07 03:16:49;;;;;;;;;;;;;;;-0.24;100.00;102074.50;6154534;23;19916;-75
2024/03/07 03:19:15;;;;;;;;;;;;;;;-0.22;100.00;102077.91;6156183;23;19909;-77
2024/03/07 03:21:40;;;;;;;;;;;;;;;-0.20;100.00;102074.25;6154115;23;19947;-79
2024/03/07 03:24:07;;;;;;;;;;;;;;;-0.10;100.00;102069.22;6155308;23;20373;-77
2024/03/07 03:26:32;;;;;;;;;;;;;;;-0.03;100.00;102065.22;6154143;23;20425;-77
2024/03/07 03:28:57;;;;;;;;;;;;;;;0.02;100.00;102062.28;6155269;23;19921;-77
2024/03/07 03:31:23;;;;;;;;;;;;;;;0.00;100.00;102066.84;6155556;23;19983;-77
2024/03/07 03:33:49;;;;;;;;;;;;;;;-0.01;100.00;102065.13;6155264;23;19983;-78
2024/03/07 03:36:14;;;;;;;;;;;;;;;0.02;100.00;102058.78;6154503;23;19959;-77
2024/03/07 03:38:40;;;;;;;;;;;;;;;0.01;100.00;102062.38;6154937;23;20245;-77
2024/03/07 03:41:05;;;;;;;;;;;;;;;-0.04;100.00;102058.22;6155824;23;20287;-78
2024/03/07 03:43:48;;;;;;;;;;;;;;;-0.07;100.00;102062.88;6150934;23;20290;-76
2024/03/07 03:46:14;;;;;;;;;;;;;;;0.01;100.00;102054.44;6155271;23;19916;-76
2024/03/07 03:48:45;;;;;;;;;;;;;;;0.00;100.00;102053.59;6155404;23;20207;-76
2024/03/07 03:51:21;;;;;;;;;;;;;;;-0.01;100.00;102065.97;6154406;23;19969;-76
2024/03/07 03:53:47;;;;;;;;;;;;;;;-0.01;100.00;102060.69;6151399;23;19983;-76
2024/03/07 03:56:21;;;;;;;;;;;;;;;-0.01;100.00;102054.56;6153354;23;20341;-76
2024/03/07 03:59:01;;;;;;;;;;;;;;;-0.06;100.00;102061.94;6154850;23;19921;-77
2024/03/07 04:01:26;;;;;;;;;;;;;;;-0.07;100.00;102050.47;6154759;23;19920;-77
2024/03/07 04:06:17;;;;;;;;;;;;;;;-0.03;100.00;102051.97;6152961;23;19924;-77
2024/03/07 04:09:15;;;;;;;;;;;;;;;-0.03;100.00;102056.44;6154581;23;19920;-77
2024/03/07 04:11:46;;;;;;;;;;;;;;;-0.01;100.00;102057.19;6154200;23;19912;-76
2024/03/07 04:14:11;;;;;;;;;;;;;;;0.04;100.00;102057.72;6154570;23;19912;-76
2024/03/07 04:16:36;;;;;;;;;;;;;;;0.02;100.00;102054.34;6154453;23;20227;-77
2024/03/07 04:19:02;;;;;;;;;;;;;;;-0.01;100.00;102057.19;6155006;23;20214;-76
2024/03/07 04:21:30;;;;;;;;;;;;;;;-0.04;100.00;102060.88;6153910;23;20218;-77
2024/03/07 04:23:55;;;;;;;;;;;;;;;-0.05;100.00;102059.16;6183452;23;19919;-77
2024/03/07 04:26:21;;;;;;;;;;;;;;;-0.06;100.00;102052.19;6184138;23;19913;-76
2024/03/07 04:28:48;;;;;;;;;;;;;;;-0.14;100.00;102054.47;6183989;23;20527;-76
2024/03/07 04:31:13;;;;;;;;;;;;;;;-0.15;100.00;102055.41;6182932;23;19916;-76
2024/03/07 04:33:39;;;;;;;;;;;;;;;-0.10;100.00;102048.03;6184304;23;20297;-75
2024/03/07 04:36:07;;;;;;;;;;;;;;;-0.09;100.00;102054.19;6183480;23;19920;-75
2024/03/07 04:38:32;;;;;;;;;;;;;;;-0.16;100.00;102051.91;6182503;23;20066;-77
2024/03/07 04:40:57;;;;;;;;;;;;;;;-0.20;100.00;102042.47;6185110;23;20278;-76
2024/03/07 04:43:23;;;;;;;;;;;;;;;-0.22;100.00;102043.50;6183785;23;19923;-76
2024/03/07 04:45:48;;;;;;;;;;;;;;;-0.20;100.00;102053.06;6155589;23;20054;-76
2024/03/07 04:48:13;;;;;;;;;;;;;;;-0.11;100.00;102043.69;6184576;23;19912;-76
2024/03/07 04:50:42;;;;;;;;;;;;;;;-0.11;100.00;102050.78;6184181;23;19978;-76
2024/03/07 04:53:07;;;;;;;;;;;;;;;-0.08;100.00;102045.28;6183751;23;20233;-76
2024/03/07 04:55:32;;;;;;;;;;;;;;;-0.10;100.00;102049.81;6184292;23;20333;-76
2024/03/07 04:57:58;;;;;;;;;;;;;;;-0.13;100.00;102047.38;6184336;23;20370;-76
2024/03/07 05:00:23;;;;;;;;;;;;;;;-0.18;100.00;102045.03;6182572;23;19919;-76
2024/03/07 05:02:51;;;;;;;;;;;;;;;-0.19;100.00;102046.84;6184019;23;19913;-77
2024/03/07 05:05:22;;;;;;;;;;;;;;;-0.23;100.00;102058.56;6183437;23;20318;-76
2024/03/07 05:07:49;;;;;;;;;;;;;;;-0.23;100.00;102061.19;6182871;23;19916;-76
2024/03/07 05:10:17;;;;;;;;;;;;;;;-0.24;100.00;102048.91;6184211;23;19932;-76
2024/03/07 05:12:43;;;;;;;;;;;;;;;-0.33;100.00;102055.63;6183406;23;19916;-76
2024/03/07 05:15:11;;;;;;;;;;;;;;;-0.32;100.00;102057.31;6182617;23;20366;-76
2024/03/07 05:17:37;;;;;;;;;;;;;;;-0.33;100.00;102054.75;6184033;23;19959;-76
2024/03/07 05:20:09;;;;;;;;;;;;;;;-0.39;100.00;102055.16;6185778;23;19916;-76
2024/03/07 05:22:34;;;;;;;;;;;;;;;-0.47;100.00;102055.63;6182526;23;19916;-76
2024/03/07 05:25:05;;;;;;;;;;;;;;;-0.54;100.00;102052.53;6184420;23;20333;-77
2024/03/07 05:27:30;;;;;;;;;;;;;;;-0.61;100.00;102052.03;6182818;23;19947;-77
2024/03/07 05:29:57;;;;;;;;;;;;;;;-0.60;100.00;102066.13;6183601;23;19912;-77
2024/03/07 05:32:23;;;;;;;;;;;;;;;-0.64;100.00;102070.75;6183266;23;20258;-76
2024/03/07 05:34:48;;;;;;;;;;;;;;;-0.62;100.00;102060.91;6182153;23;19916;-76
2024/03/07 05:37:13;;;;;;;;;;;;;;;-0.63;100.00;102058.38;6182818;23;19913;-76
2024/03/07 05:39:39;;;;;;;;;;;;;;;-0.67;100.00;102062.13;6183438;23;20241;-76
2024/03/07 05:42:04;;;;;;;;;;;;;;;-0.71;100.00;102065.94;6183400;23;20281;-76
2024/03/07 05:44:29;;;;;;;;;;;;;;;-0.74;100.00;102059.00;6182604;23;20206;-76
2024/03/07 05:46:54;;;;;;;;;;;;;;;-0.71;100.00;102060.63;6184123;23;19912;-76
2024/03/07 05:49:22;;;;;;;;;;;;;;;-0.71;100.00;102060.63;6183316;23;19912;-75
2024/03/07 05:51:48;;;;;;;;;;;;;;;-0.70;100.00;102054.38;6182833;23;19912;-75
2024/03/07 05:54:13;;;;;;;;;;;;;;;-0.75;100.00;102059.13;6183410;23;19916;-76
2024/03/07 05:56:38;;;;;;;;;;;;;;;-0.75;100.00;102059.13;6183289;23;19919;-75
2024/03/07 05:59:07;;;;;;;;;;;;;;;-0.76;100.00;102068.81;6182706;23;19916;-76
2024/03/07 06:01:32;;;;;;;;;;;;;;;-0.77;100.00;102065.34;6182889;23;20270;-76
2024/03/07 06:03:58;;;;;;;;;;;;;;;-0.80;100.00;102073.47;6182753;23;19912;-75
2024/03/07 06:06:24;;;;;;;;;;;;;;;-0.75;100.00;102064.41;6183825;23;19924;-76
2024/03/07 06:08:49;;;;;;;;;;;;;;;-0.80;100.00;102062.06;6187393;23;19935;-76
2024/03/07 06:11:19;;;;;;;;;;;;;;;-0.83;100.00;102065.72;6189618;23;20248;-76
2024/03/07 06:13:46;;;;;;;;;;;;;;;-0.86;100.00;102068.53;6184641;23;20317;-76
2024/03/07 06:16:11;;;;;;;;;;;;;;;-0.84;100.00;102071.94;6184956;23;19912;-76
2024/03/07 06:18:37;;;;;;;;;;;;;;;-0.84;100.00;102071.94;6183604;23;19917;-76
2024/03/07 06:21:04;;;;;;;;;;;;;;;-0.86;100.00;102073.81;6182488;23;19991;-76
2024/03/07 06:23:30;;;;;;;;;;;;;;;-0.86;100.00;102078.28;6182636;23;19943;-76
2024/03/07 06:25:55;;;;;;;;;;;;;;;-0.84;100.00;102074.56;6182937;23;20330;-76
2024/03/07 06:28:21;;;;;;;;;;;;;;;-0.83;100.00;102073.63;6182727;23;19928;-76
2024/03/07 06:30:49;;;;;;;;;;;;;;;-0.84;100.00;102076.38;6181254;23;20325;-75
2024/03/07 06:33:16;;;;;;;;;;;;;;;-0.73;100.00;102081.88;6183542;23;19912;-77
2024/03/07 06:35:41;;;;;;;;;;;;;;;-0.56;100.00;102075.56;6182499;23;19915;-76
2024/03/07 06:38:08;;;;;;;;;;;;;;;-0.23;100.00;102074.44;6181269;23;19934;-77
2024/03/07 06:40:33;;;;;;;;;;;;;;;0.13;100.00;102078.34;6182909;23;19935;-76
2024/03/07 06:42:58;;;;;;;;;;;;;;;0.54;100.00;102081.03;6177190;23;20211;-76
2024/03/07 06:45:24;;;;;;;;;;;;;;;0.86;100.00;102086.03;6179339;23;19916;-76
2024/03/07 06:47:49;;;;;;;;;;;;;;;1.30;100.00;102089.28;6181154;23;19919;-77
2024/03/07 06:50:19;;;;;;;;;;;;;;;1.43;100.00;102081.28;6180754;23;19919;-77
2024/03/07 06:52:44;;;;;;;;;;;;;;;1.82;100.00;102095.38;6180078;23;19920;-74
2024/03/07 06:55:11;;;;;;;;;;;;;;;2.16;100.00;102087.66;6181789;23;19916;-74
2024/03/07 06:57:36;;;;;;;;;;;;;;;2.47;100.00;102085.41;6179796;23;19959;-76
2024/03/07 07:00:10;;;;;;;;;;;;;;;2.49;100.00;102094.13;6179470;23;19920;-76
2024/03/07 07:02:35;;;;;;;;;;;;;;;2.92;100.00;102091.91;6182305;23;20071;-76
2024/03/07 07:05:00;;;;;;;;;;;;;;;3.20;100.00;102088.00;6180140;23;20039;-75
2024/03/07 07:07:26;;;;;;;;;;;;;;;3.61;100.00;102097.25;6179637;23;19928;-76
2024/03/07 07:09:53;;;;;;;;;;;;;;;3.95;100.00;102099.03;6183557;23;19916;-76
2024/03/07 07:12:19;;;;;;;;;;;;;;;4.10;100.00;102100.47;6183875;23;19995;-83
2024/03/07 07:14:44;;;;;;;;;;;;;;;4.24;100.00;102093.19;6185578;23;19916;-76
2024/03/07 07:17:13;;;;;;;;;;;;;;;4.79;96.63;102092.28;6184848;23;19913;-74
2024/03/07 07:19:39;;;;;;;;;;;;;;;4.48;93.68;102100.16;6183901;23;20038;-76
2024/03/07 07:22:06;;;;;;;;;;;;;;;5.16;91.54;102095.38;6182007;23;20321;-77
2024/03/07 07:24:34;;;;;;;;;;;;;;;5.47;92.14;102098.09;6182869;23;20340;-76
2024/03/07 07:27:02;;;;;;;;;;;;;;;5.53;89.50;102096.69;6183082;23;19931;-77
2024/03/07 07:29:27;;;;;;;;;;;;;;;5.97;86.10;102098.31;6182866;23;19913;-76
2024/03/07 07:31:52;;;;;;;;;;;;;;;6.06;85.39;102103.72;6184106;23;19995;-76
2024/03/07 07:34:17;;;;;;;;;;;;;;;6.41;80.79;102095.34;6182243;23;20060;-77
2024/03/07 07:36:43;;;;;;;;;;;;;;;6.75;78.38;102087.75;6182609;23;19920;-77
2024/03/07 07:39:16;;;;;;;;;;;;;;;7.09;79.96;102106.03;6184200;23;20014;-77
2024/03/07 07:41:41;;;;;;;;;;;;;;;7.20;77.71;102101.53;6181858;23;20320;-78
2024/03/07 07:44:08;;;;;;;;;;;;;;;8.00;73.23;102103.81;6182991;23;19916;-77
2024/03/07 07:46:33;;;;;;;;;;;;;;;7.79;73.28;102093.28;6183365;23;19975;-77
2024/03/07 07:48:59;;;;;;;;;;;;;;;8.00;73.42;102093.91;6183176;23;20226;-75
2024/03/07 07:51:25;;;;;;;;;;;;;;;7.96;72.53;102097.03;6183628;23;19934;-80
2024/03/07 07:53:50;;;;;;;;;;;;;;;7.73;74.28;102098.28;6183297;23;19947;-74
2024/03/07 07:56:16;;;;;;;;;;;;;;;8.38;68.25;102099.22;6181562;23;19916;-74
2024/03/07 07:58:41;;;;;;;;;;;;;;;8.60;67.53;102100.63;6181354;23;19988;-74
2024/03/07 08:01:09;;;;;;;;;;;;;;;8.56;68.95;102101.91;6183026;23;20014;-73
2024/03/07 08:03:50;;;;;;;;;;;;;;;8.83;63.95;102094.78;6169218;23;19950;-73
2024/03/07 08:06:27;;;;;;;;;;;;;;;8.81;65.65;102094.09;6152836;23;20388;-74
2024/03/07 08:08:53;;;;;;;;;;;;;;;8.29;65.25;102090.22;6152633;23;19913;-73
2024/03/07 08:11:18;;;;;;;;;;;;;;;8.42;66.99;102097.06;6151755;23;20004;-74
2024/03/07 08:13:47;;;;;;;;;;;;;;;8.00;69.13;102083.19;6153992;23;19917;-75
2024/03/07 08:16:15;;;;;;;;;;;;;;;8.45;64.63;102088.72;6155812;23;19920;-73
2024/03/07 08:18:40;;;;;;;;;;;;;;;7.91;67.80;102092.13;6154881;23;19916;-78
2024/03/07 08:21:06;;;;;;;;;;;;;;;7.98;68.94;102079.78;6164958;23;20027;-78
2024/03/07 08:23:31;;;;;;;;;;;;;;;8.40;67.86;102089.13;6166712;23;19912;-78
2024/03/07 08:25:56;;;;;;;;;;;;;;;8.73;65.57;102083.28;6156346;23;20325;-79
2024/03/07 08:28:22;;;;;;;;;;;;;;;8.02;68.01;102077.69;6153852;23;20285;-76
2024/03/07 08:30:47;;;;;;;;;;;;;;;7.61;68.88;102088.72;6152361;23;19912;-78
2024/03/07 08:33:13;;;;;;;;;;;;;;;7.21;70.90;102087.97;6154091;23;19908;-79
2024/03/07 08:35:38;;;;;;;;;;;;;;;8.63;67.81;102096.78;6152916;23;19913;-76
2024/03/07 08:38:04;;;;;;;;;;;;;;;8.69;65.88;102092.63;6151774;23;20397;-79
2024/03/07 08:40:33;;;;;;;;;;;;;;;8.26;66.03;102077.09;6154800;23;19908;-78
2024/03/07 08:42:59;;;;;;;;;;;;;;;8.36;66.45;102074.38;6128265;23;19924;-78
2024/03/07 08:45:27;;;;;;;;;;;;;;;8.73;65.19;102072.53;6153776;23;19916;-77
2024/03/07 08:47:54;;;;;;;;;;;;;;;8.76;64.58;102074.94;6168401;23;19912;-78
2024/03/07 08:50:22;;;;;;;;;;;;;;;9.95;63.71;102075.31;6162776;23;19924;-78
2024/03/07 08:52:47;;;;;;;;;;;;;;;9.71;62.87;102068.81;6153607;23;19987;-78
2024/03/07 08:55:14;;;;;;;;;;;;;;;9.97;60.51;102065.22;6153837;23;20295;-78
2024/03/07 08:57:39;;;;;;;;;;;;;;;8.87;63.99;102063.94;6152603;23;19939;-78
2024/03/07 09:00:11;;;;;;;;;;;;;;;7.52;69.94;102062.81;6152917;23;19916;-78
2024/03/07 09:02:40;;;;;;;;;;;;;;;7.32;69.31;102060.19;6153508;23;19912;-78
2024/03/07 09:05:05;;;;;;;;;;;;;;;6.64;74.57;102066.50;6152937;23;20253;-78
2024/03/07 09:07:30;;;;;;;;;;;;;;;5.96;81.33;102061.88;6153795;23;19936;-77
2024/03/07 09:09:56;;;;;;;;;;;;;;;5.80;80.71;102065.03;6155831;23;19928;-77
2024/03/07 09:12:21;;;;;;;;;;;;;;;5.68;82.57;102067.81;6160303;23;19924;-77
2024/03/07 09:14:46;;;;;;;;;;;;;;;5.57;83.13;102079.44;6169963;23;19995;-78
2024/03/07 09:17:12;;;;;;;;;;;;;;;5.74;82.00;102074.44;6160579;23;19913;-77
2024/03/07 09:19:37;;;;;;;;;;;;;;;5.15;84.22;102076.81;6156434;23;19916;-78
2024/03/07 09:22:03;;;;;;;;;;;;;;;5.04;86.69;102083.06;6155075;23;19913;-78
2024/03/07 09:24:28;;;;;;;;;;;;;;;4.90;86.49;102084.25;6155447;23;19988;-77
2024/03/07 09:26:56;;;;;;;;;;;;;;;4.70;90.11;102075.22;6153898;23;19999;-77
2024/03/07 09:29:24;;;;;;;;;;;;;;;4.56;88.78;102073.72;6161779;23;19912;-77
2024/03/07 09:31:51;;;;;;;;;;;;;;;4.61;88.23;102074.16;6164537;23;20282;-77
2024/03/07 09:34:18;;;;;;;;;;;;;;;4.48;88.26;102061.03;6156772;23;19917;-78
2024/03/07 09:36:43;;;;;;;;;;;;;;;4.36;90.37;102072.66;6124419;23;19969;-77
2024/03/07 09:39:12;;;;;;;;;;;;;;;4.63;89.94;102072.22;6152445;23;19919;-78
2024/03/07 09:41:46;;;;;;;;;;;;;;;4.60;90.18;102058.31;6152190;23;19923;-77
2024/03/07 09:44:17;;;;;;;;;;;;;;;4.70;89.60;102060.06;6152458;23;19931;-76
2024/03/07 09:46:43;;;;;;;;;;;;;;;4.78;88.39;102063.91;6153943;23;19940;-76
2024/03/07 09:49:11;;;;;;;;;;;;;;;4.81;88.14;102052.97;6125831;23;19923;-76
2024/03/07 09:51:37;;;;;;;;;;;;;;;4.87;87.96;102052.47;6126080;23;19916;-77
2024/03/07 09:54:02;;;;;;;;;;;;;;;4.41;88.46;102054.50;6127332;23;20309;-77
2024/03/07 09:56:31;;;;;;;;;;;;;;;4.58;88.12;102063.78;6150225;23;19999;-76
2024/03/07 09:58:57;;;;;;;;;;;;;;;4.62;87.59;102048.34;6153197;23;19921;-77
2024/03/07 10:01:24;;;;;;;;;;;;;;;4.89;87.18;102055.00;6153167;23;19987;-77
2024/03/07 10:03:50;;;;;;;;;;;;;;;4.89;86.85;102049.66;6125951;23;20308;-77
2024/03/07 10:06:15;;;;;;;;;;;;;;;5.23;87.16;102052.13;6125619;23;19930;-78
2024/03/07 10:08:41;;;;;;;;;;;;;;;5.37;85.34;102057.16;6152513;23;20455;-76
2024/03/07 10:11:09;;;;;;;;;;;;;;;5.41;85.17;102053.19;6125141;23;19916;-77
2024/03/07 10:13:38;;;;;;;;;;;;;;;5.53;84.87;102053.13;6152122;23;19916;-76
2024/03/07 10:16:04;;;;;;;;;;;;;;;5.58;85.37;102057.09;6153451;23;20341;-78
2024/03/07 10:18:30;;;;;;;;;;;;;;;5.73;84.61;102054.03;6153479;23;19983;-78
2024/03/07 10:20:55;;;;;;;;;;;;;;;5.65;84.20;102048.53;6153138;23;20337;-77
2024/03/07 10:23:20;;;;;;;;;;;;;;;5.62;87.05;102049.66;6152266;23;20349;-77
2024/03/07 10:25:46;;;;;;;;;;;;;;;5.87;85.45;102053.66;6152362;23;19913;-77
2024/03/07 10:28:11;;;;;;;;;;;;;;;5.67;84.65;102043.88;6153133;23;20027;-79
2024/03/07 10:30:41;;;;;;;;;;;;;;;5.72;84.06;102041.66;6152668;23;19920;-76
2024/03/07 10:33:07;;;;;;;;;;;;;;;5.90;84.06;102040.03;6153161;23;19926;-77
2024/03/07 10:35:32;;;;;;;;;;;;;;;6.05;81.68;102042.34;6151873;23;19916;-76
2024/03/07 10:38:00;;;;;;;;;;;;;;;6.01;83.04;102041.78;6152961;23;19962;-78
2024/03/07 10:40:27;;;;;;;;;;;;;;;6.30;81.30;102040.16;6152522;23;19916;-77
2024/03/07 10:42:53;;;;;;;;;;;;;;;6.28;81.89;102042.09;6151090;23;20302;-77
2024/03/07 10:45:19;;;;;;;;;;;;;;;6.32;80.14;102044.34;6154525;23;19924;-77
2024/03/07 10:47:45;;;;;;;;;;;;;;;6.20;81.23;102038.28;6154624;23;19920;-78
2024/03/07 10:50:16;;;;;;;;;;;;;;;6.69;80.59;102037.47;6128624;23;19920;-78
2024/03/07 10:52:54;;;;;;;;;;;;;;;6.94;78.77;102044.06;6153599;23;19935;-77
2024/03/07 10:55:41;;;;;;;;;;;;;;;6.32;79.59;102040.84;6154880;23;19967;-77
2024/03/07 10:58:12;;;;;;;;;;;;;;;6.39;79.85;102027.75;6153577;23;19912;-77
2024/03/07 11:00:39;;;;;;;;;;;;;;;6.66;81.01;102030.56;6129162;23;19967;-77
2024/03/07 11:03:06;;;;;;;;;;;;;;;6.78;80.53;102028.59;6154378;23;19975;-78
2024/03/07 11:05:32;;;;;;;;;;;;;;;6.75;79.92;102011.97;6153845;23;20019;-78
2024/03/07 11:08:12;;;;;;;;;;;;;;;6.44;80.05;102031.69;6152377;23;19967;-79
2024/03/07 11:10:40;;;;;;;;;;;;;;;6.19;81.62;102009.84;6154722;23;19924;-78
2024/03/07 11:16:13;;;;;;;;;;;;;;;6.57;82.45;102011.84;6156730;23;19920;-78
2024/03/07 11:18:57;;;;;;;;;;;;;;;7.03;82.24;102010.25;6128374;23;19916;-78
2024/03/07 11:21:44;;;;;;;;;;;;;;;7.35;77.82;101997.44;6154907;23;19919;-78
2024/03/07 11:24:47;;;;;;;;;;;;;;;7.22;79.56;102003.97;6171837;23;20000;-78
2024/03/07 11:27:21;;;;;;;;;;;;;;;7.30;80.24;101995.19;6169093;23;20358;-78
2024/03/07 11:29:52;;;;;;;;;;;;;;;7.20;79.36;102002.44;6172061;23;19940;-79
2024/03/07 11:32:40;;;;;;;;;;;;;;;7.06;79.64;101993.03;6160513;23;19984;-80
2024/03/07 11:35:15;;;;;;;;;;;;;;;6.95;80.34;102002.06;6154553;23;19913;-78
2024/03/07 11:37:43;;;;;;;;;;;;;;;7.27;78.47;102006.19;6154919;23;19980;-78
2024/03/07 11:40:24;;;;;;;;;;;;;;;7.48;79.03;101992.59;6155557;23;19913;-79
2024/03/07 11:42:50;;;;;;;;;;;;;;;7.47;77.94;101987.38;6154573;23;19931;-78
2024/03/07 11:45:29;;;;;;;;;;;;;;;8.08;77.36;101971.63;6158175;23;20295;-79
2024/03/07 11:47:59;;;;;;;;;;;;;;;8.95;74.02;101970.00;6160260;23;19923;-78
2024/03/07 11:50:25;;;;;;;;;;;;;;;9.72;70.19;101976.38;6168923;23;19916;-79
2024/03/07 11:52:51;;;;;;;;;;;;;;;9.59;71.38;101967.94;6174035;23;19924;-79
2024/03/07 11:55:18;;;;;;;;;;;;;;;9.07;71.16;101961.66;6166121;23;19917;-79
2024/03/07 11:57:47;;;;;;;;;;;;;;;9.13;71.03;101960.19;6152880;23;19913;-79
2024/03/07 12:00:13;;;;;;;;;;;;;;;9.18;71.09;101958.69;6154150;23;19920;-79
2024/03/07 12:02:39;;;;;;;;;;;;;;;9.23;70.95;101961.75;6152663;23;20035;-78
2024/03/07 12:05:05;;;;;;;;;;;;;;;9.26;71.25;101955.22;6154605;23;20012;-78
2024/03/07 12:07:30;;;;;;;;;;;;;;;8.99;70.88;101953.59;6154381;23;19913;-78
2024/03/07 12:09:55;;;;;;;;;;;;;;;7.82;74.70;101945.56;6154606;23;19951;-78
2024/03/07 12:12:24;;;;;;;;;;;;;;;7.34;80.14;101937.66;6153594;23;19912;-77
2024/03/07 12:14:52;;;;;;;;;;;;;;;7.07;81.37;101942.00;6166317;23;19924;-77
2024/03/07 12:17:17;;;;;;;;;;;;;;;7.22;82.15;101938.88;6158274;23;19919;-78
2024/03/07 12:19:43;;;;;;;;;;;;;;;7.53;81.38;101922.47;6130678;23;19913;-78
2024/03/07 12:22:12;;;;;;;;;;;;;;;7.84;79.21;101908.72;6155778;23;20245;-78
2024/03/07 12:24:38;;;;;;;;;;;;;;;7.96;78.91;101920.91;6154725;23;19917;-79
2024/03/07 12:27:10;;;;;;;;;;;;;;;8.36;75.48;101921.41;6156110;23;19932;-79
2024/03/07 12:29:38;;;;;;;;;;;;;;;9.39;74.68;101925.19;6153341;23;19942;-78
2024/03/07 12:32:06;;;;;;;;;;;;;;;9.58;70.93;101916.03;6156084;23;19913;-78
2024/03/07 12:34:36;;;;;;;;;;;;;;;9.07;72.04;101910.63;6160904;23;19912;-78
2024/03/07 12:37:01;;;;;;;;;;;;;;;8.27;76.65;101911.59;6161546;23;20279;-77
2024/03/07 12:39:29;;;;;;;;;;;;;;;7.91;78.09;101908.94;6160113;23;19920;-77
2024/03/07 12:42:01;;;;;;;;;;;;;;;7.56;81.52;101908.78;6166128;23;19909;-76
2024/03/07 12:44:29;;;;;;;;;;;;;;;7.69;81.47;101909.25;6159201;23;19913;-76
2024/03/07 12:49:30;;;;;;;;;;;;;;;7.53;80.67;101904.56;6150631;23;19928;-77